createdAt,value
2023-01-11T00:00:19.131Z,0
2023-01-11T00:05:19.115Z,-0.06
2023-01-11T00:10:19.114Z,0.06
2023-01-11T00:15:19.102Z,0.31
2023-01-11T00:20:19.138Z,0.5
2023-01-11T00:25:19.119Z,0.62
2023-01-11T00:30:19.125Z,0.68
2023-01-11T00:35:19.106Z,0.56
2023-01-11T00:40:19.156Z,0.62
2023-01-11T00:45:19.098Z,0.56
2023-01-11T00:50:19.113Z,0.75
2023-01-11T00:55:19.090Z,0.62
2023-01-11T01:00:19.084Z,0.68
2023-01-11T01:05:19.120Z,0.56
2023-01-11T01:10:19.093Z,0.62
2023-01-11T01:15:19.141Z,0.62
2023-01-11T01:20:19.080Z,0.62
2023-01-11T01:25:19.097Z,0.75
2023-01-11T01:30:19.105Z,1.18
2023-01-11T01:35:19.098Z,0.68
2023-01-11T01:40:19.069Z,1.06
2023-01-11T01:45:19.090Z,0.81
2023-01-11T01:50:19.072Z,0.62
2023-01-11T01:55:19.070Z,0.81
2023-01-11T02:00:19.072Z,0.62
2023-01-11T02:05:19.083Z,0.81
2023-01-11T02:10:19.057Z,0.75
2023-01-11T02:15:19.089Z,1.12
2023-01-11T02:20:19.055Z,0.75
2023-01-11T02:25:19.052Z,0.81
2023-01-11T02:30:19.081Z,0.81
2023-01-11T02:35:19.050Z,0.56
2023-01-11T02:40:19.055Z,0.62
2023-01-11T02:45:19.057Z,0.62
2023-01-11T02:50:19.038Z,0.93
2023-01-11T02:55:19.065Z,0.68
2023-01-11T03:00:19.060Z,0.68
2023-01-11T03:05:19.037Z,0.56
2023-01-11T03:10:19.049Z,0.56
2023-01-11T03:15:19.023Z,0.62
2023-01-11T03:20:19.022Z,0.62
2023-01-11T03:25:19.055Z,0.5
2023-01-11T03:30:19.039Z,0.5
2023-01-11T03:35:19.010Z,0.5
2023-01-11T03:40:19.020Z,0.5
2023-01-11T03:45:19.027Z,0.62
2023-01-11T03:50:19.023Z,0.62
2023-01-11T03:55:19.030Z,0.62
2023-01-11T04:00:19.025Z,0.75
2023-01-11T04:05:19.025Z,0.75
2023-01-11T04:10:19.038Z,0.75
2023-01-11T04:15:19.183Z,0.68
2023-01-11T04:20:19.006Z,1
2023-01-11T04:25:19.013Z,0.87
2023-01-11T04:30:19.009Z,0.75
2023-01-11T04:35:18.997Z,0.87
2023-01-11T04:45:19.021Z,0.5
2023-01-11T04:50:19.014Z,0.5
2023-01-11T04:55:18.994Z,0.56
2023-01-11T05:00:18.999Z,0.68
2023-01-11T05:05:19.004Z,0.75
2023-01-11T05:10:20.968Z,0.87
2023-01-11T05:15:18.961Z,1.12
2023-01-11T05:20:18.979Z,1.06
2023-01-11T05:25:18.964Z,1
2023-01-11T05:30:18.965Z,1.06
2023-01-11T05:35:18.959Z,1.56
2023-01-11T05:40:18.967Z,1.37
2023-01-11T05:45:18.989Z,1.43
2023-01-11T05:50:18.948Z,1.5
2023-01-11T05:55:18.948Z,1.75
2023-01-11T06:00:18.980Z,1.56
2023-01-11T06:05:18.960Z,1.5
2023-01-11T06:10:18.945Z,1.81
2023-01-11T06:15:18.932Z,2.18
2023-01-11T06:20:18.953Z,1.43
2023-01-11T06:30:18.931Z,2
2023-01-11T06:35:18.931Z,2.12
2023-01-11T06:40:18.926Z,2.25
2023-01-11T06:50:18.924Z,2.06
2023-01-11T06:55:18.917Z,2.37
2023-01-11T07:00:18.926Z,2.06
2023-01-11T07:05:19.537Z,2.06
2023-01-11T07:15:18.921Z,2.5
2023-01-11T07:20:18.906Z,2.68
2023-01-11T07:35:18.943Z,2.31
2023-01-11T07:40:18.917Z,2.43
2023-01-11T07:45:18.950Z,2.87
2023-01-11T07:50:18.894Z,2.87
2023-01-11T07:55:18.885Z,3.06
2023-01-11T08:00:18.889Z,3.12
2023-01-11T08:05:18.908Z,3.12
2023-01-11T08:10:18.903Z,3.06
2023-01-11T08:15:18.877Z,3.18
2023-01-11T08:20:18.865Z,3.81
2023-01-11T08:25:18.901Z,3.43
2023-01-11T08:30:18.926Z,3.68
2023-01-11T08:40:18.875Z,3.81
2023-01-11T08:45:18.845Z,4
2023-01-11T08:50:18.858Z,4.12
2023-01-11T08:55:18.894Z,4.5
2023-01-11T09:00:18.861Z,4.5
2023-01-11T09:05:18.884Z,4.56
2023-01-11T09:10:18.842Z,4.81
2023-01-11T09:15:18.826Z,4.68
2023-01-11T09:20:18.839Z,5
2023-01-11T09:25:18.845Z,5
2023-01-11T09:30:18.840Z,5.06
2023-01-11T09:35:18.810Z,5.18
2023-01-11T09:40:18.835Z,5.31
2023-01-11T09:45:18.841Z,5.12
2023-01-11T09:50:18.816Z,5.25
2023-01-11T09:55:18.810Z,5.56
2023-01-11T10:00:18.808Z,6
2023-01-11T10:05:18.822Z,6
2023-01-11T10:18:24.432Z,6.37
2023-01-11T10:20:18.838Z,5.93
2023-01-11T10:25:18.939Z,6.12
2023-01-11T10:30:18.794Z,6.06
2023-01-11T10:35:18.781Z,6.06
2023-01-11T10:40:18.787Z,6.62
2023-01-11T10:45:18.777Z,6.12
2023-01-11T10:50:18.769Z,6.12
2023-01-11T10:55:18.797Z,6.06
2023-01-11T11:00:18.772Z,6.12
2023-01-11T11:05:18.744Z,6.18
2023-01-11T11:10:18.756Z,5.81
2023-01-11T11:15:18.747Z,5.93
2023-01-11T11:20:18.750Z,5.75
2023-01-11T11:25:18.726Z,5.87
2023-01-11T11:30:18.762Z,6
2023-01-11T11:35:18.805Z,5.81
2023-01-11T11:40:18.824Z,6.12
2023-01-11T11:45:18.715Z,6.31
2023-01-11T11:50:23.617Z,6.68
2023-01-11T11:55:18.723Z,6.81
2023-01-11T12:00:18.716Z,7.12
2023-01-11T12:05:18.723Z,7.18
2023-01-11T12:10:18.705Z,7.06
2023-01-11T12:15:18.709Z,7.06
2023-01-11T12:20:18.682Z,6.93
2023-01-11T12:25:18.675Z,6.87
2023-01-11T12:30:20.202Z,7.06
2023-01-11T12:35:18.661Z,7
2023-01-11T12:40:18.669Z,7.31
2023-01-11T12:45:18.666Z,7.31
2023-01-11T12:50:18.639Z,7.25
2023-01-11T12:55:18.647Z,7
2023-01-11T13:00:18.653Z,7.25
2023-01-11T13:05:18.642Z,6.93
2023-01-11T13:10:18.643Z,7.06
2023-01-11T13:15:18.638Z,7.18
2023-01-11T13:20:18.629Z,6.93
2023-01-11T13:25:18.654Z,6.93
2023-01-11T13:30:18.631Z,7
2023-01-11T13:35:18.626Z,7
2023-01-11T13:40:18.631Z,6.87
2023-01-11T13:45:18.603Z,6.93
2023-01-11T13:50:18.626Z,6.81
2023-01-11T13:55:25.786Z,6.93
2023-01-11T14:00:18.609Z,6.87
2023-01-11T14:05:18.602Z,6.93
2023-01-11T14:10:18.625Z,6.5
2023-01-11T14:15:18.582Z,6.68
2023-01-11T14:20:18.585Z,6.12
2023-01-11T14:25:18.591Z,5.93
2023-01-11T14:30:18.572Z,5.75
2023-01-11T14:35:18.550Z,5.81
2023-01-11T14:40:18.574Z,5.62
2023-01-11T14:45:18.555Z,5.62
2023-01-11T14:50:18.556Z,5.87
2023-01-11T14:55:18.559Z,5.75
2023-01-11T15:00:18.556Z,5.62
2023-01-11T15:05:18.534Z,5.5
2023-01-11T15:10:18.532Z,5.5
2023-01-11T15:15:18.539Z,5.43
2023-01-11T15:20:18.539Z,5.56
2023-01-11T15:25:18.523Z,5.31
2023-01-11T15:30:18.509Z,5.18
2023-01-11T15:35:18.523Z,5.12
2023-01-11T15:40:18.538Z,4.93
2023-01-11T15:45:18.523Z,4.87
2023-01-11T15:50:18.515Z,4.87
2023-01-11T15:55:18.520Z,5.06
2023-01-11T16:00:18.498Z,4.93
2023-01-11T16:05:18.487Z,5
2023-01-11T16:10:18.483Z,4.87
2023-01-11T16:15:18.478Z,4.81
2023-01-11T16:20:18.508Z,5.12
2023-01-11T16:25:18.483Z,5.87
2023-01-11T16:30:18.492Z,6.37
2023-01-11T16:35:18.494Z,6.56
2023-01-11T16:40:18.464Z,6.68
2023-01-11T16:45:18.475Z,6.87
2023-01-11T16:50:18.460Z,7.06
2023-01-11T16:55:18.464Z,7.18
2023-01-11T17:00:34.165Z,8.06
2023-01-11T17:05:18.445Z,7.31
2023-01-11T17:10:18.428Z,7.18
2023-01-11T17:15:18.442Z,7.12
2023-01-11T17:20:18.449Z,7.12
2023-01-11T17:25:18.413Z,7.06
2023-01-11T17:30:18.418Z,7.06
2023-01-11T17:35:18.405Z,7.06
2023-01-11T17:40:18.439Z,7.06
2023-01-11T17:45:20.573Z,7.06
2023-01-11T17:50:18.412Z,7.06
2023-01-11T17:55:18.424Z,7.06
2023-01-11T18:00:18.420Z,7
2023-01-11T18:05:18.400Z,7.06
2023-01-11T18:10:18.392Z,7.06
2023-01-11T18:15:18.368Z,7
2023-01-11T18:20:18.377Z,7
2023-01-11T18:25:18.370Z,7
2023-01-11T18:30:18.380Z,7.06
2023-01-11T18:35:18.969Z,7
2023-01-11T18:40:18.370Z,6.93
2023-01-11T18:45:18.394Z,6.87
2023-01-11T18:50:19.685Z,6.81
2023-01-11T18:55:18.364Z,6.81
2023-01-11T19:00:18.356Z,6.81
2023-01-11T19:05:18.328Z,6.75
2023-01-11T19:10:18.346Z,6.75
2023-01-11T19:15:18.323Z,6.75
2023-01-11T19:20:18.330Z,6.62
2023-01-11T19:25:18.341Z,6.62
2023-01-11T19:30:18.311Z,6.5
2023-01-11T19:35:18.320Z,6.43
2023-01-11T19:40:18.343Z,6.37
2023-01-11T19:45:18.293Z,6.31
2023-01-11T19:50:18.376Z,6.25
2023-01-11T19:55:18.290Z,6.18
2023-01-11T20:00:18.325Z,6.18
2023-01-11T20:05:18.295Z,6.12
2023-01-11T20:10:18.302Z,6
2023-01-11T20:15:18.289Z,6.06
2023-01-11T20:20:18.259Z,6.06
2023-01-11T20:25:18.304Z,6.06
2023-01-11T20:30:18.288Z,6
2023-01-11T20:35:18.260Z,5.87
2023-01-11T20:40:18.261Z,5.75
2023-01-11T20:45:18.259Z,5.68
2023-01-11T20:50:18.254Z,5.68
2023-01-11T20:55:18.241Z,5.68
2023-01-11T21:00:18.300Z,5.62
2023-01-11T21:15:18.268Z,5.62
2023-01-11T21:30:18.228Z,5.37
2023-01-11T21:40:18.213Z,5.31
2023-01-11T21:55:18.202Z,5.18
2023-01-11T22:05:18.225Z,5.18
2023-01-11T22:10:18.203Z,5.18
2023-01-11T22:15:18.182Z,5.12
2023-01-11T22:20:18.190Z,4.93
2023-01-11T22:25:18.171Z,5
2023-01-11T22:30:18.181Z,5.06
2023-01-11T22:35:18.172Z,5.31
2023-01-11T22:40:18.232Z,5.37
2023-01-11T22:45:18.197Z,5.56
2023-01-11T22:50:18.172Z,5.68
2023-01-11T22:55:18.179Z,5.68
2023-01-11T23:00:18.148Z,5.68
2023-01-11T23:05:18.185Z,5.75
2023-01-11T23:10:18.153Z,5.62
2023-01-11T23:15:18.148Z,5.75
2023-01-11T23:20:18.138Z,5.62
2023-01-11T23:25:18.134Z,5.75
2023-01-11T23:30:18.146Z,5.68
2023-01-11T23:35:18.127Z,5.68
2023-01-11T23:40:18.149Z,5.75
2023-01-11T23:45:18.116Z,5.62
2023-01-11T23:50:18.122Z,5.56
2023-01-11T23:55:18.118Z,5.5
